Latest Weather Observations for Cape Moreton
Issued at 4:52 pm EST Thursday 3 September 2026 (issued every 10 minutes, with the page automatically refreshed every 10 minutes)
| Station Details | ID: 040043 | Name: CAPE MORETON LIGHTHOUSE | Lat: -27.03 | Lon: 153.47 | Height: 99.9 m |
| Date/Time EST |
Temp °C |
App Temp °C |
Dew Point °C |
Rel Hum % |
Delta-T °C |
Wind | Press QNH hPa |
Press MSL hPa |
Rain since 9am mm |
||||
|---|---|---|---|---|---|---|---|---|---|---|---|---|---|
| Dir | Spd km/h |
Gust km/h |
Spd kts |
Gust kts |
|||||||||
| 03/04:30pm | 21.2 | 19.0 | 17.8 | 81 | 2.1 | N | 26 | 39 | 14 | 21 | 1017.4 | 1017.1 | 0.0 |
| 03/04:00pm | 21.5 | 18.9 | 17.9 | 80 | 2.2 | N | 28 | 39 | 15 | 21 | 1017.3 | 1017.0 | 0.0 |
| 03/03:30pm | 21.7 | 18.7 | 17.7 | 78 | 2.5 | N | 30 | 41 | 16 | 22 | 1017.4 | 1017.1 | 0.0 |
| 03/03:00pm | 21.8 | 19.2 | 17.8 | 78 | 2.5 | N | 28 | 39 | 15 | 21 | 1017.7 | 1017.4 | 0.0 |
| 03/02:30pm | 21.8 | 19.6 | 17.8 | 78 | 2.5 | N | 26 | 37 | 14 | 20 | 1018.1 | 1017.8 | 0.0 |
| 03/02:00pm | 22.0 | 19.6 | 17.4 | 75 | 2.8 | N | 26 | 35 | 14 | 19 | 1018.3 | 1018.0 | 0.0 |
| 03/01:30pm | 22.2 | 19.9 | 16.7 | 71 | 3.4 | NNW | 24 | 33 | 13 | 18 | 1018.8 | 1018.6 | 0.0 |
| 03/01:00pm | 22.1 | 19.9 | 17.0 | 73 | 3.1 | N | 24 | 32 | 13 | 17 | 1019.2 | 1019.0 | 0.0 |
| 03/12:30pm | 21.9 | 19.7 | 16.8 | 73 | 3.1 | N | 24 | 32 | 13 | 17 | 1019.5 | 1019.3 | 0.0 |
| 03/12:00pm | 22.3 | 21.0 | 17.2 | 73 | 3.1 | NNW | 20 | 28 | 11 | 15 | 1020.3 | 1020.1 | 0.0 |
| 03/11:30am | 21.9 | 20.2 | 17.1 | 74 | 3.0 | NNW | 22 | 32 | 12 | 17 | 1020.7 | 1020.5 | 0.0 |
| 03/11:00am | 20.9 | 17.5 | 15.9 | 73 | 3.0 | NNW | 28 | 35 | 15 | 19 | 1021.5 | 1021.3 | 0.0 |
| 03/10:30am | 20.7 | 17.6 | 15.7 | 73 | 3.0 | NNW | 26 | 33 | 14 | 18 | 1021.8 | 1021.6 | 0.0 |
| 03/10:00am | 20.4 | 16.9 | 15.4 | 73 | 3.0 | NW | 28 | 35 | 15 | 19 | 1021.9 | 1021.7 | 0.0 |
| 03/09:30am | 20.5 | 17.8 | 15.7 | 74 | 2.9 | NW | 24 | 35 | 13 | 19 | 1022.2 | 1022.0 | 0.0 |
| 03/09:00am | 20.2 | 17.5 | 15.6 | 75 | 2.7 | NW | 24 | 33 | 13 | 18 | 1021.8 | 1021.6 | 0.0 |
| 03/08:30am | 19.8 | 16.6 | 15.2 | 75 | 2.7 | NW | 26 | 35 | 14 | 19 | 1021.7 | 1021.5 | 0.0 |
| 03/08:00am | 19.4 | 15.7 | 14.9 | 75 | 2.6 | NW | 28 | 35 | 15 | 19 | 1021.8 | 1021.6 | 0.0 |
| 03/07:30am | 19.2 | 16.1 | 15.7 | 80 | 2.1 | NNW | 26 | 32 | 14 | 17 | 1021.7 | 1021.5 | 0.0 |
| 03/07:00am | 18.9 | 15.8 | 14.6 | 76 | 2.5 | NW | 24 | 35 | 13 | 19 | 1021.4 | 1021.2 | 0.0 |
| 03/06:30am | 18.4 | 15.6 | 14.3 | 77 | 2.4 | NW | 22 | 30 | 12 | 16 | 1021.2 | 1021.0 | 0.0 |
| 03/06:00am | 18.3 | 15.5 | 14.2 | 77 | 2.4 | NW | 22 | 30 | 12 | 16 | 1020.8 | 1020.6 | 0.0 |
| 03/05:30am | 18.3 | 14.6 | 13.8 | 75 | 2.6 | NW | 26 | 35 | 14 | 19 | 1020.2 | 1020.0 | 0.0 |
| 03/05:00am | 18.4 | 14.6 | 13.5 | 73 | 2.8 | NW | 26 | 35 | 14 | 19 | 1020.3 | 1020.1 | 0.0 |
| 03/04:30am | 18.6 | 13.9 | 13.2 | 71 | 3.1 | NW | 30 | 39 | 16 | 21 | 1019.9 | 1019.7 | 0.0 |
| 03/04:00am | 18.5 | 15.6 | 14.0 | 75 | 2.6 | NW | 22 | 30 | 12 | 16 | 1019.9 | 1019.7 | 0.0 |
| 03/03:30am | 18.5 | 14.5 | 14.0 | 75 | 2.6 | NW | 28 | 41 | 15 | 22 | 1019.9 | 1019.7 | 0.0 |
| 03/03:00am | 18.6 | 14.6 | 15.1 | 80 | 2.0 | NW | 30 | 43 | 16 | 23 | 1019.9 | 1019.7 | 0.0 |
| 03/02:30am | 18.4 | 15.1 | 14.9 | 80 | 2.0 | NW | 26 | 37 | 14 | 20 | 1020.0 | 1019.8 | 0.0 |
| 03/02:00am | 18.3 | 15.4 | 15.0 | 81 | 1.9 | NW | 24 | 33 | 13 | 18 | 1020.2 | 1020.0 | 0.0 |
| 03/01:30am | 18.6 | 14.0 | 14.7 | 78 | 2.3 | NW | 32 | 43 | 17 | 23 | 1020.5 | 1020.3 | 0.0 |
| 03/01:00am | 18.8 | 14.0 | 14.5 | 76 | 2.5 | NNW | 33 | 43 | 18 | 23 | 1020.9 | 1020.7 | 0.0 |
| 03/12:30am | 19.1 | 13.4 | 13.1 | 68 | 3.4 | NNW | 35 | 43 | 19 | 23 | 1021.1 | 1020.9 | 0.0 |
| 03/12:00am | 19.1 | 14.4 | 14.4 | 74 | 2.7 | NNW | 32 | 43 | 17 | 23 | 1021.3 | 1021.1 | 0.0 |
| Date/Time EST |
Temp °C |
App Temp °C |
Dew Point °C |
Rel Hum % |
Delta-T °C |
Wind | Press QNH hPa |
Press MSL hPa |
Rain since 9am mm |
||||
|---|---|---|---|---|---|---|---|---|---|---|---|---|---|
| Dir | Spd km/h |
Gust km/h |
Spd kts |
Gust kts |
|||||||||
| 02/11:30pm | 19.3 | 14.6 | 14.3 | 73 | 2.9 | NNW | 32 | 44 | 17 | 24 | 1021.3 | 1021.1 | 0.0 |
| 02/11:00pm | 19.0 | 15.3 | 14.9 | 77 | 2.4 | NW | 28 | 35 | 15 | 19 | 1021.4 | 1021.2 | 0.0 |
| 02/10:30pm | 19.0 | 15.9 | 15.5 | 80 | 2.1 | NW | 26 | 39 | 14 | 21 | 1021.5 | 1021.3 | 0.0 |
| 02/10:00pm | 19.7 | 15.9 | 14.7 | 73 | 2.9 | NNW | 28 | 39 | 15 | 21 | 1021.4 | 1021.2 | 0.0 |
| 02/09:30pm | 19.7 | 16.0 | 15.1 | 75 | 2.7 | NNW | 28 | 39 | 15 | 21 | 1021.5 | 1021.3 | 0.0 |
| 02/09:00pm | 19.7 | 15.2 | 14.9 | 74 | 2.8 | NNW | 32 | 39 | 17 | 21 | 1021.4 | 1021.2 | 0.0 |
| 02/08:30pm | 19.8 | 16.0 | 14.6 | 72 | 3.0 | N | 28 | 39 | 15 | 21 | 1021.2 | 1021.0 | 0.0 |
| 02/08:00pm | 19.8 | 16.1 | 15.0 | 74 | 2.8 | N | 28 | 39 | 15 | 21 | 1021.1 | 1020.9 | 0.0 |
| 02/07:30pm | 19.7 | 16.2 | 14.5 | 72 | 3.0 | N | 26 | 35 | 14 | 19 | 1020.7 | 1020.5 | 0.0 |
| 02/07:00pm | 19.7 | 16.6 | 14.5 | 72 | 3.0 | N | 24 | 33 | 13 | 18 | 1020.5 | 1020.3 | 0.0 |
| 02/06:30pm | 19.6 | 17.2 | 14.4 | 72 | 3.0 | N | 20 | 32 | 11 | 17 | 1020.3 | 1020.1 | 0.0 |
| 02/06:00pm | 19.7 | 17.0 | 14.5 | 72 | 3.0 | N | 22 | 33 | 12 | 18 | 1020.1 | 1019.9 | 0.0 |
| 02/05:30pm | 19.7 | 16.4 | 14.1 | 70 | 3.2 | N | 24 | 33 | 13 | 18 | 1020.1 | 1019.9 | 0.0 |
| 02/05:00pm | 20.0 | 17.0 | 13.7 | 67 | 3.6 | NNE | 22 | 32 | 12 | 17 | 1019.9 | 1019.7 | 0.0 |
| 02/04:30pm | 20.3 | 17.2 | 13.5 | 65 | 3.9 | NNE | 22 | 32 | 12 | 17 | 1020.0 | 1019.8 | 0.0 |
| 02/04:00pm | 20.6 | 18.0 | 13.8 | 65 | 3.9 | NNE | 20 | 30 | 11 | 16 | 1020.0 | 1019.8 | 0.0 |
| 02/03:30pm | 21.0 | 18.5 | 14.2 | 65 | 4.0 | NNE | 20 | 28 | 11 | 15 | 1020.2 | 1020.0 | 0.0 |
| 02/03:00pm | 21.3 | 18.8 | 14.0 | 63 | 4.2 | N | 20 | 30 | 11 | 16 | 1020.2 | 1020.0 | 0.0 |
| 02/02:30pm | 21.3 | 18.8 | 14.0 | 63 | 4.3 | N | 20 | 30 | 11 | 16 | 1020.6 | 1020.4 | 0.0 |
| 02/02:00pm | 21.6 | 19.1 | 14.0 | 62 | 4.4 | N | 20 | 26 | 11 | 14 | 1020.8 | 1020.6 | 0.0 |
| 02/01:30pm | 21.8 | 19.5 | 14.2 | 62 | 4.5 | N | 19 | 28 | 10 | 15 | 1021.3 | 1021.1 | 0.0 |
| 02/01:00pm | 21.6 | 19.2 | 14.3 | 63 | 4.3 | N | 20 | 28 | 11 | 15 | 1021.6 | 1021.4 | 0.0 |
| 02/12:30pm | 21.5 | 19.3 | 14.4 | 64 | 4.2 | NNW | 19 | 26 | 10 | 14 | 1022.3 | 1022.1 | 0.0 |
| 02/12:00pm | 21.4 | 19.2 | 14.3 | 64 | 4.1 | NNW | 19 | 24 | 10 | 13 | 1023.1 | 1022.8 | 0.0 |
| 02/11:30am | 20.4 | 18.0 | 14.5 | 69 | 3.5 | NNW | 20 | 28 | 11 | 15 | 1023.7 | 1023.4 | 0.0 |
| 02/11:00am | 20.8 | 19.5 | 14.9 | 69 | 3.5 | NW | 15 | 22 | 8 | 12 | 1024.2 | 1023.9 | 0.0 |
| 02/10:30am | 19.4 | 17.1 | 14.2 | 72 | 3.0 | NW | 19 | 24 | 10 | 13 | 1024.7 | 1024.4 | 0.0 |
| 02/10:00am | 19.8 | 17.9 | 14.2 | 70 | 3.2 | NW | 17 | 24 | 9 | 13 | 1025.1 | 1024.8 | 0.0 |
| 02/09:30am | 19.7 | 18.3 | 14.5 | 72 | 3.0 | WNW | 15 | 24 | 8 | 13 | 1025.3 | 1025.0 | 0.0 |
| 02/09:00am | 19.3 | 18.2 | 14.3 | 73 | 2.9 | WNW | 13 | 20 | 7 | 11 | 1025.5 | 1025.2 | 0.0 |
| 02/08:30am | 18.7 | 17.2 | 14.2 | 75 | 2.6 | WNW | 15 | 20 | 8 | 11 | 1025.4 | 1025.1 | 0.0 |
| 02/08:00am | 18.3 | 17.2 | 14.2 | 77 | 2.4 | WNW | 13 | 17 | 7 | 9 | 1025.0 | 1024.7 | 0.0 |
| 02/07:30am | 17.4 | 16.1 | 13.7 | 79 | 2.1 | WNW | 13 | 17 | 7 | 9 | 1024.6 | 1024.3 | 0.0 |
| 02/07:00am | 16.6 | 14.5 | 13.5 | 82 | 1.7 | W | 17 | 19 | 9 | 10 | 1024.5 | 1024.2 | 0.0 |
| 02/06:30am | 16.0 | 13.5 | 13.5 | 85 | 1.4 | W | 19 | 20 | 10 | 11 | 1024.3 | 1024.0 | 0.0 |
| 02/06:00am | 16.0 | 13.9 | 13.5 | 85 | 1.4 | W | 17 | 20 | 9 | 11 | 1024.1 | 1023.8 | 0.0 |
| 02/05:30am | 16.1 | 14.1 | 13.8 | 86 | 1.3 | WNW | 17 | 20 | 9 | 11 | 1023.9 | 1023.6 | 0.0 |
| 02/05:00am | 16.3 | 14.0 | 14.1 | 87 | 1.2 | WNW | 19 | 20 | 10 | 11 | 1023.6 | 1023.3 | 0.0 |
| 02/04:30am | 16.2 | 14.1 | 14.6 | 90 | 0.9 | W | 19 | 20 | 10 | 11 | 1023.5 | 1023.2 | 0.0 |
| 02/04:00am | 16.2 | 14.4 | 14.4 | 89 | 1.0 | W | 17 | 20 | 9 | 11 | 1023.5 | 1023.2 | 0.0 |
| 02/03:30am | 17.1 | 15.4 | 14.6 | 85 | 1.4 | WNW | 17 | 20 | 9 | 11 | 1023.7 | 1023.4 | 0.0 |
| 02/03:00am | 17.8 | 15.9 | 14.1 | 79 | 2.1 | NW | 17 | 20 | 9 | 11 | 1024.0 | 1023.7 | 0.0 |
| 02/02:30am | 18.7 | 15.8 | 12.9 | 69 | 3.3 | N | 20 | 26 | 11 | 14 | 1024.3 | 1024.0 | 0.0 |
| 02/02:00am | 18.6 | 16.0 | 13.2 | 71 | 3.1 | N | 19 | 28 | 10 | 15 | 1024.5 | 1024.2 | 0.0 |
| 02/01:30am | 18.7 | 15.9 | 13.1 | 70 | 3.2 | N | 20 | 26 | 11 | 14 | 1024.7 | 1024.4 | 0.0 |
| 02/01:00am | 18.7 | 15.4 | 12.7 | 68 | 3.4 | N | 22 | 32 | 12 | 17 | 1024.8 | 1024.5 | 0.0 |
| 02/12:30am | 18.6 | 16.0 | 13.2 | 71 | 3.1 | N | 19 | 24 | 10 | 13 | 1025.2 | 1024.9 | 0.0 |
| 02/12:00am | 18.5 | 16.5 | 12.7 | 69 | 3.2 | N | 15 | 20 | 8 | 11 | 1025.5 | 1025.2 | 0.0 |
| Date/Time EST |
Temp °C |
App Temp °C |
Dew Point °C |
Rel Hum % |
Delta-T °C |
Wind | Press QNH hPa |
Press MSL hPa |
Rain since 9am mm |
||||
|---|---|---|---|---|---|---|---|---|---|---|---|---|---|
| Dir | Spd km/h |
Gust km/h |
Spd kts |
Gust kts |
|||||||||
| 01/11:30pm | 18.4 | 16.3 | 12.4 | 68 | 3.4 | NNE | 15 | 20 | 8 | 11 | 1025.7 | 1025.4 | 0.0 |
| 01/11:00pm | 18.5 | 16.2 | 12.9 | 70 | 3.1 | N | 17 | 24 | 9 | 13 | 1025.8 | 1025.5 | 0.0 |
| 01/10:30pm | 18.8 | 16.4 | 12.8 | 68 | 3.4 | N | 17 | 24 | 9 | 13 | 1026.0 | 1025.7 | 0.0 |
| 01/10:00pm | 18.6 | 16.0 | 12.1 | 66 | 3.6 | NNE | 17 | 24 | 9 | 13 | 1026.1 | 1025.8 | 0.0 |
| 01/09:30pm | 18.6 | 15.6 | 12.1 | 66 | 3.6 | NE | 19 | 24 | 10 | 13 | 1026.1 | 1025.8 | 0.0 |
| 01/09:00pm | 18.6 | 16.3 | 13.0 | 70 | 3.1 | NNE | 17 | 20 | 9 | 11 | 1026.2 | 1025.9 | 0.0 |
| 01/08:30pm | 18.4 | 16.9 | 13.1 | 71 | 3.0 | NNE | 13 | 19 | 7 | 10 | 1026.5 | 1026.2 | 0.0 |
| 01/08:00pm | 18.4 | 16.5 | 13.1 | 71 | 3.0 | NE | 15 | 20 | 8 | 11 | 1026.5 | 1026.2 | 0.0 |
| 01/07:30pm | 18.6 | 16.9 | 13.5 | 72 | 2.9 | NE | 15 | 20 | 8 | 11 | 1026.3 | 1026.0 | 0.0 |
| 01/07:00pm | 18.5 | 16.5 | 12.7 | 69 | 3.2 | NE | 15 | 20 | 8 | 11 | 1026.0 | 1025.7 | 0.0 |
| 01/06:30pm | 18.5 | 16.4 | 12.3 | 67 | 3.5 | NE | 15 | 20 | 8 | 11 | 1025.7 | 1025.4 | 0.0 |
| 01/06:00pm | 18.6 | 16.3 | 11.7 | 64 | 3.8 | NE | 15 | 20 | 8 | 11 | 1025.4 | 1025.1 | 0.0 |
| 01/05:30pm | 18.6 | 16.1 | 11.2 | 62 | 4.0 | ENE | 15 | 19 | 8 | 10 | 1025.3 | 1025.0 | 0.0 |
| 01/05:00pm | 19.0 | 16.3 | 11.8 | 63 | 4.0 | NE | 17 | 22 | 9 | 12 | 1025.1 | 1024.8 | 0.0 |
| 01/04:30pm | 19.2 | 17.0 | 12.2 | 64 | 3.9 | ENE | 15 | 20 | 8 | 11 | 1025.2 | 1024.9 | 0.0 |
| 01/04:00pm | 19.5 | 18.0 | 13.0 | 66 | 3.7 | ENE | 13 | 17 | 7 | 9 | 1025.4 | 1025.1 | 0.0 |
| 01/03:30pm | 19.9 | 18.4 | 13.1 | 65 | 3.9 | ENE | 13 | 19 | 7 | 10 | 1025.5 | 1025.2 | 0.0 |
| 01/03:00pm | 20.6 | 19.3 | 13.8 | 65 | 3.9 | E | 13 | 17 | 7 | 9 | 1025.6 | 1025.3 | 0.0 |
| 01/02:30pm | 20.7 | 19.5 | 13.9 | 65 | 3.9 | ENE | 13 | 20 | 7 | 11 | 1025.9 | 1025.6 | 0.0 |
| 01/02:00pm | 21.8 | 20.5 | 13.7 | 60 | 4.7 | ENE | 13 | 17 | 7 | 9 | 1026.0 | 1025.7 | 0.0 |
| 01/01:30pm | 22.5 | 21.2 | 13.8 | 58 | 5.1 | E | 13 | 19 | 7 | 10 | 1026.5 | 1026.2 | 0.0 |
| 01/01:00pm | 22.6 | 21.3 | 13.7 | 57 | 5.2 | E | 13 | 15 | 7 | 8 | 1027.0 | 1026.7 | 0.0 |
| 01/12:30pm | 22.5 | 21.2 | 13.6 | 57 | 5.2 | ESE | 13 | 19 | 7 | 10 | 1027.3 | 1027.1 | 0.0 |
| 01/12:00pm | 22.7 | 21.3 | 13.5 | 56 | 5.3 | ESE | 13 | 17 | 7 | 9 | 1027.7 | 1027.5 | 0.0 |
| 01/11:30am | 21.9 | 19.4 | 13.5 | 59 | 4.9 | ESE | 19 | 22 | 10 | 12 | 1028.1 | 1027.9 | 0.0 |
| 01/11:00am | 21.9 | 19.8 | 13.5 | 59 | 4.8 | ESE | 17 | 20 | 9 | 11 | 1028.7 | 1028.5 | 0.0 |
| 01/10:30am | 23.1 | 22.3 | 15.2 | 61 | 4.7 | ESE | 13 | 17 | 7 | 9 | 1029.3 | 1029.1 | 0.0 |
| 01/10:00am | 22.2 | 19.9 | 13.0 | 56 | 5.3 | ESE | 17 | 20 | 9 | 11 | 1029.6 | 1029.4 | 0.0 |
| 01/09:30am | 21.8 | 19.8 | 13.9 | 60 | 4.6 | E | 17 | 20 | 9 | 11 | 1029.5 | 1029.4 | 0.0 |
| 01/09:00am | 22.7 | 20.5 | 14.5 | 60 | 4.8 | E | 19 | 24 | 10 | 13 | 1029.6 | 1029.5 | 0.2 |
| 01/08:30am | 21.2 | 18.6 | 13.1 | 60 | 4.6 | E | 19 | 24 | 10 | 13 | 1029.5 | 1029.4 | 0.2 |
| 01/08:00am | 21.1 | 17.3 | 12.5 | 58 | 4.8 | E | 24 | 33 | 13 | 18 | 1029.2 | 1029.1 | 0.2 |
| 01/07:30am | 20.6 | 17.4 | 13.1 | 62 | 4.3 | E | 22 | 28 | 12 | 15 | 1029.1 | 1029.0 | 0.2 |
| 01/07:00am | 19.8 | 16.3 | 13.5 | 67 | 3.6 | E | 24 | 32 | 13 | 17 | 1028.5 | 1028.4 | 0.2 |
| 01/06:30am | 18.8 | 15.2 | 13.0 | 69 | 3.3 | E | 24 | 32 | 13 | 17 | 1028.0 | 1027.8 | 0.2 |
| 01/06:00am | 18.4 | 13.9 | 12.6 | 69 | 3.2 | E | 28 | 35 | 15 | 19 | 1027.6 | 1027.4 | 0.2 |
| 01/05:30am | 18.5 | 14.4 | 12.7 | 69 | 3.3 | E | 26 | 35 | 14 | 19 | 1027.3 | 1027.1 | 0.2 |
| 01/05:00am | 18.5 | 14.0 | 12.7 | 69 | 3.2 | E | 28 | 33 | 15 | 18 | 1027.2 | 1027.0 | 0.2 |
| 01/04:30am | 18.2 | 14.9 | 12.9 | 71 | 3.0 | E | 22 | 32 | 12 | 17 | 1027.2 | 1027.0 | 0.2 |
| 01/04:00am | 18.1 | 15.3 | 13.2 | 73 | 2.8 | E | 20 | 30 | 11 | 16 | 1027.2 | 1027.0 | 0.2 |
| 01/03:30am | 18.1 | 15.3 | 13.2 | 73 | 2.8 | E | 20 | 30 | 11 | 16 | 1027.2 | 1027.0 | 0.2 |
| 01/03:00am | 18.3 | 15.1 | 13.0 | 71 | 3.0 | E | 22 | 32 | 12 | 17 | 1027.3 | 1027.1 | 0.2 |
| 01/02:30am | 18.5 | 14.6 | 13.4 | 72 | 2.9 | ESE | 26 | 35 | 14 | 19 | 1027.4 | 1027.2 | 0.2 |
| 01/02:00am | 18.6 | 14.2 | 13.0 | 70 | 3.1 | ESE | 28 | 35 | 15 | 19 | 1027.7 | 1027.5 | 0.2 |
| 01/01:30am | 18.4 | 14.9 | 13.5 | 73 | 2.8 | ESE | 24 | 32 | 13 | 17 | 1028.1 | 1027.9 | 0.2 |
| 01/01:00am | 18.0 | 14.4 | 14.1 | 78 | 2.2 | ESE | 26 | 35 | 14 | 19 | 1028.4 | 1028.3 | 0.2 |
| 01/12:30am | 17.8 | 14.6 | 14.3 | 80 | 2.0 | ESE | 24 | 32 | 13 | 17 | 1028.7 | 1028.6 | 0.2 |
| 01/12:00am | 17.8 | 13.4 | 15.1 | 84 | 1.6 | ESE | 32 | 41 | 17 | 22 | 1028.9 | 1028.8 | 0.2 |
| Date/Time EST |
Temp °C |
App Temp °C |
Dew Point °C |
Rel Hum % |
Delta-T °C |
Wind | Press QNH hPa |
Press MSL hPa |
Rain since 9am mm |
||||
|---|---|---|---|---|---|---|---|---|---|---|---|---|---|
| Dir | Spd km/h |
Gust km/h |
Spd kts |
Gust kts |
|||||||||
| 31/11:30pm | 16.8 | 11.1 | 12.9 | 78 | 2.2 | SE | 35 | 48 | 19 | 26 | 1029.0 | 1028.9 | 0.2 |
| 31/11:00pm | 18.3 | 14.9 | 13.8 | 75 | 2.6 | ESE | 24 | 32 | 13 | 17 | 1029.3 | 1029.2 | 0.0 |
| 31/10:30pm | 18.4 | 14.3 | 13.9 | 75 | 2.6 | ESE | 28 | 35 | 15 | 19 | 1029.5 | 1029.4 | 0.0 |
| 31/10:00pm | 18.3 | 14.2 | 13.8 | 75 | 2.6 | ESE | 28 | 37 | 15 | 20 | 1029.4 | 1029.3 | 0.0 |
| 31/09:30pm | 18.6 | 13.9 | 14.3 | 76 | 2.5 | ESE | 32 | 37 | 17 | 20 | 1029.5 | 1029.4 | 0.0 |
| 31/09:00pm | 18.6 | 13.6 | 13.9 | 74 | 2.7 | ESE | 33 | 41 | 18 | 22 | 1029.4 | 1029.3 | 0.0 |
| 31/08:30pm | 18.4 | 13.0 | 13.9 | 75 | 2.6 | SE | 35 | 43 | 19 | 23 | 1029.0 | 1028.9 | 0.0 |
| 31/08:00pm | 18.1 | 14.6 | 15.5 | 85 | 1.5 | SE | 28 | 32 | 15 | 17 | 1029.0 | 1028.9 | 0.0 |
| 31/07:30pm | 17.4 | 15.3 | 14.7 | 84 | 1.6 | ESE | 19 | 26 | 10 | 14 | 1029.0 | 1028.9 | 0.0 |
| 31/07:00pm | 17.1 | 14.7 | 13.8 | 81 | 1.9 | SSE | 19 | 22 | 10 | 12 | 1028.8 | 1028.7 | 0.0 |
| 31/06:30pm | 16.5 | 12.8 | 14.0 | 85 | 1.4 | S | 26 | 35 | 14 | 19 | 1028.7 | 1028.6 | 0.0 |
| 31/06:13pm | 16.2 | 8.3 | 13.9 | 86 | 1.3 | SSE | 48 | 57 | 26 | 31 | 1028.4 | 1028.3 | 0.0 |
| 31/06:10pm | 16.8 | 9.1 | 14.3 | 85 | 1.4 | SSE | 48 | 59 | 26 | 32 | 1028.4 | 1028.3 | 0.0 |
| 31/06:00pm | 18.0 | 13.0 | 14.1 | 78 | 2.2 | SSE | 33 | 56 | 18 | 30 | 1028.2 | 1028.0 | 0.0 |
| 31/05:30pm | 17.9 | 14.5 | 13.6 | 76 | 2.4 | SSE | 24 | 32 | 13 | 17 | 1028.3 | 1028.1 | 0.0 |
| 31/05:00pm | 18.1 | 12.8 | 12.5 | 70 | 3.1 | SE | 32 | 43 | 17 | 23 | 1028.2 | 1028.0 | 0.0 |
| 31/04:56pm | 18.3 | 12.7 | 13.4 | 73 | 2.8 | SE | 35 | 43 | 19 | 23 | 1028.0 | 1027.8 | 0.0 |
Latest Capital City Observations: Canberra | Sydney | Melbourne | Brisbane | Adelaide | Perth | Hobart | Darwin
Other formats
Comma delimited format used in spreadsheet applications
http://www.bom.gov.au/fwo/IDQ60901/IDQ60901.94594.axf
JavaScript Object Notation format (JSON) in row-major order
http://www.bom.gov.au/fwo/IDQ60901/IDQ60901.94594.json
Data quality
Most of these data are generated automatically and are frequently updated. Quality checks on data are not normally performed. It is possible for incorrect values to appear. Refer to information at About Latest Weather Observations and please check the disclaimer before using these data.
